sensor_id;sensor_type;location;lat;lon;timestamp;pressure;altitude;pressure_sealevel;temperature;humidity
72110;BME280;59983;52.010;5.420;2023-09-19T00:00:35;100688.31;;;13.89;100.00
72110;BME280;59983;52.010;5.420;2023-09-19T00:03:02;100698.03;;;13.87;100.00
72110;BME280;59983;52.010;5.420;2023-09-19T00:05:34;100700.34;;;13.85;100.00
72110;BME280;59983;52.010;5.420;2023-09-19T00:08:01;100703.84;;;13.85;100.00
72110;BME280;59983;52.010;5.420;2023-09-19T00:10:33;100707.78;;;13.88;100.00
72110;BME280;59983;52.010;5.420;2023-09-19T00:13:03;100698.03;;;13.87;100.00
72110;BME280;59983;52.010;5.420;2023-09-19T00:15:42;100699.25;;;13.89;100.00
72110;BME280;59983;52.010;5.420;2023-09-19T00:18:09;100704.72;;;13.93;100.00
72110;BME280;59983;52.010;5.420;2023-09-19T00:20:36;100707.50;;;13.97;100.00
72110;BME280;59983;52.010;5.420;2023-09-19T00:23:04;100714.16;;;13.99;100.00
72110;BME280;59983;52.010;5.420;2023-09-19T00:25:36;100710.25;;;13.97;100.00
72110;BME280;59983;52.010;5.420;2023-09-19T00:28:04;100715.69;;;13.97;100.00
72110;BME280;59983;52.010;5.420;2023-09-19T00:30:34;100716.81;;;13.96;100.00
72110;BME280;59983;52.010;5.420;2023-09-19T00:33:00;100723.91;;;14.00;100.00
72110;BME280;59983;52.010;5.420;2023-09-19T00:35:29;100727.03;;;14.02;100.00
72110;BME280;59983;52.010;5.420;2023-09-19T00:37:56;100733.28;;;14.03;100.00
72110;BME280;59983;52.010;5.420;2023-09-19T00:40:22;100721.22;;;14.04;100.00
72110;BME280;59983;52.010;5.420;2023-09-19T00:42:50;100727.81;;;14.03;100.00
72110;BME280;59983;52.010;5.420;2023-09-19T00:45:17;100728.28;;;14.08;100.00
72110;BME280;59983;52.010;5.420;2023-09-19T00:47:47;100727.91;;;14.10;100.00
72110;BME280;59983;52.010;5.420;2023-09-19T00:50:19;100727.50;;;14.08;100.00
72110;BME280;59983;52.010;5.420;2023-09-19T00:52:48;100726.34;;;14.09;100.00
72110;BME280;59983;52.010;5.420;2023-09-19T00:55:16;100735.31;;;14.09;100.00
72110;BME280;59983;52.010;5.420;2023-09-19T00:57:46;100729.06;;;14.09;100.00
72110;BME280;59983;52.010;5.420;2023-09-19T01:00:13;100736.88;;;14.10;100.00
72110;BME280;59983;52.010;5.420;2023-09-19T01:02:42;100741.19;;;14.11;100.00
72110;BME280;59983;52.010;5.420;2023-09-19T01:05:10;100731.06;;;14.12;100.00
72110;BME280;59983;52.010;5.420;2023-09-19T01:07:38;100739.69;;;14.17;100.00
72110;BME280;59983;52.010;5.420;2023-09-19T01:10:13;100737.00;;;14.21;100.00
72110;BME280;59983;52.010;5.420;2023-09-19T01:18:16;100740.59;;;14.29;100.00
72110;BME280;59983;52.010;5.420;2023-09-19T01:21:07;100742.63;;;14.32;100.00
72110;BME280;59983;52.010;5.420;2023-09-19T01:24:01;100741.00;;;14.31;100.00
72110;BME280;59983;52.010;5.420;2023-09-19T01:29:47;100755.81;;;14.30;100.00
72110;BME280;59983;52.010;5.420;2023-09-19T01:32:21;100745.66;;;14.27;100.00
72110;BME280;59983;52.010;5.420;2023-09-19T01:34:53;100746.41;;;14.24;100.00
72110;BME280;59983;52.010;5.420;2023-09-19T01:37:22;100751.41;;;14.18;100.00
72110;BME280;59983;52.010;5.420;2023-09-19T01:39:58;100748.19;;;14.12;100.00
72110;BME280;59983;52.010;5.420;2023-09-19T01:47:51;100758.06;;;13.91;100.00
72110;BME280;59983;52.010;5.420;2023-09-19T01:52:57;100770.78;;;13.79;100.00
72110;BME280;59983;52.010;5.420;2023-09-19T01:55:28;100753.63;;;13.79;100.00
72110;BME280;59983;52.010;5.420;2023-09-19T01:58:14;100763.69;;;13.75;100.00
72110;BME280;59983;52.010;5.420;2023-09-19T02:00:42;100762.53;;;13.76;100.00
72110;BME280;59983;52.010;5.420;2023-09-19T02:03:12;100766.75;;;13.70;100.00
72110;BME280;59983;52.010;5.420;2023-09-19T02:05:39;100770.59;;;13.69;100.00
72110;BME280;59983;52.010;5.420;2023-09-19T02:08:05;100760.84;;;13.68;100.00
72110;BME280;59983;52.010;5.420;2023-09-19T02:10:32;100773.25;;;13.62;100.00
72110;BME280;59983;52.010;5.420;2023-09-19T02:12:58;100775.91;;;13.58;100.00
72110;BME280;59983;52.010;5.420;2023-09-19T02:15:25;100780.16;;;13.55;100.00
72110;BME280;59983;52.010;5.420;2023-09-19T02:17:52;100771.97;;;13.55;100.00
72110;BME280;59983;52.010;5.420;2023-09-19T02:20:19;100772.34;;;13.54;100.00
72110;BME280;59983;52.010;5.420;2023-09-19T02:22:47;100767.59;;;13.51;100.00
72110;BME280;59983;52.010;5.420;2023-09-19T02:25:16;100761.75;;;13.49;100.00
72110;BME280;59983;52.010;5.420;2023-09-19T02:27:42;100768.34;;;13.48;100.00
72110;BME280;59983;52.010;5.420;2023-09-19T02:30:10;100774.91;;;13.43;100.00
72110;BME280;59983;52.010;5.420;2023-09-19T02:32:36;100774.84;;;13.40;100.00
72110;BME280;59983;52.010;5.420;2023-09-19T02:35:06;100774.78;;;13.36;100.00
72110;BME280;59983;52.010;5.420;2023-09-19T02:37:32;100783.69;;;13.33;100.00
72110;BME280;59983;52.010;5.420;2023-09-19T02:39:59;100778.59;;;13.31;100.00
72110;BME280;59983;52.010;5.420;2023-09-19T02:42:26;100785.94;;;13.27;100.00
72110;BME280;59983;52.010;5.420;2023-09-19T02:44:52;100772.25;;;13.24;100.00
72110;BME280;59983;52.010;5.420;2023-09-19T02:47:19;100786.59;;;13.21;100.00
72110;BME280;59983;52.010;5.420;2023-09-19T02:49:46;100797.88;;;13.19;100.00
72110;BME280;59983;52.010;5.420;2023-09-19T02:52:12;100791.53;;;13.15;100.00
72110;BME280;59983;52.010;5.420;2023-09-19T02:54:40;100800.81;;;13.11;100.00
72110;BME280;59983;52.010;5.420;2023-09-19T02:57:08;100785.97;;;13.08;100.00
72110;BME280;59983;52.010;5.420;2023-09-19T02:59:34;100795.63;;;13.05;100.00
72110;BME280;59983;52.010;5.420;2023-09-19T03:02:03;100786.25;;;13.03;100.00
72110;BME280;59983;52.010;5.420;2023-09-19T03:04:31;100792.44;;;13.00;100.00
72110;BME280;59983;52.010;5.420;2023-09-19T03:06:59;100789.28;;;12.98;100.00
72110;BME280;59983;52.010;5.420;2023-09-19T03:09:27;100790.00;;;12.95;100.00
72110;BME280;59983;52.010;5.420;2023-09-19T03:11:54;100792.69;;;12.91;100.00
72110;BME280;59983;52.010;5.420;2023-09-19T03:14:20;100791.53;;;12.92;100.00
72110;BME280;59983;52.010;5.420;2023-09-19T03:16:47;100785.31;;;12.92;100.00
72110;BME280;59983;52.010;5.420;2023-09-19T03:19:14;100781.34;;;12.89;100.00
72110;BME280;59983;52.010;5.420;2023-09-19T03:21:41;100771.59;;;12.88;100.00
72110;BME280;59983;52.010;5.420;2023-09-19T03:24:08;100774.69;;;12.87;100.00
72110;BME280;59983;52.010;5.420;2023-09-19T03:26:35;100772.72;;;12.84;100.00
72110;BME280;59983;52.010;5.420;2023-09-19T03:29:05;100774.66;;;12.83;100.00
72110;BME280;59983;52.010;5.420;2023-09-19T03:31:36;100789.81;;;12.84;100.00
72110;BME280;59983;52.010;5.420;2023-09-19T03:34:03;100782.72;;;12.80;100.00
72110;BME280;59983;52.010;5.420;2023-09-19T03:36:30;100791.34;;;12.82;100.00
72110;BME280;59983;52.010;5.420;2023-09-19T03:38:57;100788.97;;;12.80;100.00
72110;BME280;59983;52.010;5.420;2023-09-19T03:41:23;100790.09;;;12.79;100.00
72110;BME280;59983;52.010;5.420;2023-09-19T03:43:49;100787.03;;;12.81;100.00
72110;BME280;59983;52.010;5.420;2023-09-19T03:46:16;100779.66;;;12.81;100.00
72110;BME280;59983;52.010;5.420;2023-09-19T03:48:43;100768.41;;;12.83;100.00
72110;BME280;59983;52.010;5.420;2023-09-19T03:51:09;100768.41;;;12.83;100.00
72110;BME280;59983;52.010;5.420;2023-09-19T03:53:37;100768.78;;;12.81;100.00
72110;BME280;59983;52.010;5.420;2023-09-19T03:56:04;100779.66;;;12.81;100.00
72110;BME280;59983;52.010;5.420;2023-09-19T03:58:30;100774.22;;;12.81;100.00
72110;BME280;59983;52.010;5.420;2023-09-19T04:00:57;100769.84;;;12.76;100.00
72110;BME280;59983;52.010;5.420;2023-09-19T04:03:24;100775.28;;;12.76;100.00
72110;BME280;59983;52.010;5.420;2023-09-19T04:06:01;100777.22;;;12.76;100.00
72110;BME280;59983;52.010;5.420;2023-09-19T04:08:28;100779.94;;;12.76;100.00
72110;BME280;59983;52.010;5.420;2023-09-19T04:10:55;100794.34;;;12.76;100.00
72110;BME280;59983;52.010;5.420;2023-09-19T04:13:23;100789.28;;;12.75;100.00
72110;BME280;59983;52.010;5.420;2023-09-19T04:15:49;100805.97;;;12.73;100.00
72110;BME280;59983;52.010;5.420;2023-09-19T04:18:16;100803.25;;;12.73;100.00
72110;BME280;59983;52.010;5.420;2023-09-19T04:20:48;100810.63;;;12.73;100.00
72110;BME280;59983;52.010;5.420;2023-09-19T04:23:15;100811.75;;;12.72;100.00
72110;BME280;59983;52.010;5.420;2023-09-19T04:25:42;100817.56;;;12.70;100.00
72110;BME280;59983;52.010;5.420;2023-09-19T04:28:09;100835.44;;;12.71;100.00
72110;BME280;59983;52.010;5.420;2023-09-19T04:30:38;100836.59;;;12.70;100.00
72110;BME280;59983;52.010;5.420;2023-09-19T04:33:07;100825.03;;;12.73;100.00
72110;BME280;59983;52.010;5.420;2023-09-19T04:35:34;100832.03;;;12.74;100.00
72110;BME280;59983;52.010;5.420;2023-09-19T04:38:01;100837.91;;;12.76;100.00
72110;BME280;59983;52.010;5.420;2023-09-19T04:40:29;100838.75;;;12.81;100.00
72110;BME280;59983;52.010;5.420;2023-09-19T04:42:56;100846.63;;;12.86;100.00
72110;BME280;59983;52.010;5.420;2023-09-19T04:45:23;100854.50;;;12.91;100.00
72110;BME280;59983;52.010;5.420;2023-09-19T04:47:50;100854.94;;;12.93;100.00
72110;BME280;59983;52.010;5.420;2023-09-19T04:50:17;100858.72;;;12.88;100.00
72110;BME280;59983;52.010;5.420;2023-09-19T04:52:45;100849.84;;;12.91;100.00
72110;BME280;59983;52.010;5.420;2023-09-19T04:55:13;100847.50;;;12.90;100.00
72110;BME280;59983;52.010;5.420;2023-09-19T04:57:50;100840.44;;;12.89;100.00
72110;BME280;59983;52.010;5.420;2023-09-19T05:00:18;100849.41;;;12.89;100.00
72110;BME280;59983;52.010;5.420;2023-09-19T05:02:49;100847.50;;;12.90;100.00
72110;BME280;59983;52.010;5.420;2023-09-19T05:05:17;100842.38;;;12.88;100.00
72110;BME280;59983;52.010;5.420;2023-09-19T05:07:44;100842.84;;;12.90;100.00
72110;BME280;59983;52.010;5.420;2023-09-19T05:10:11;100847.91;;;12.92;100.00
72110;BME280;59983;52.010;5.420;2023-09-19T05:12:39;100846.34;;;12.91;100.00
72110;BME280;59983;52.010;5.420;2023-09-19T05:15:07;100840.91;;;12.91;100.00
72110;BME280;59983;52.010;5.420;2023-09-19T05:17:34;100849.13;;;12.94;100.00
72110;BME280;59983;52.010;5.420;2023-09-19T05:20:04;100847.97;;;12.95;100.00
72110;BME280;59983;52.010;5.420;2023-09-19T05:22:42;100842.16;;;12.97;100.00
72110;BME280;59983;52.010;5.420;2023-09-19T05:25:10;100843.31;;;12.96;100.00
72110;BME280;59983;52.010;5.420;2023-09-19T05:27:37;100855.41;;;12.98;100.00
72110;BME280;59983;52.010;5.420;2023-09-19T05:30:04;100851.25;;;13.04;100.00
72110;BME280;59983;52.010;5.420;2023-09-19T05:32:31;100843.44;;;13.03;100.00
72110;BME280;59983;52.010;5.420;2023-09-19T05:34:58;100844.22;;;13.03;100.00
72110;BME280;59983;52.010;5.420;2023-09-19T05:37:24;100847.81;;;13.08;100.00
72110;BME280;59983;52.010;5.420;2023-09-19T05:39:52;100852.91;;;13.09;100.00
72110;BME280;59983;52.010;5.420;2023-09-19T05:42:22;100846.69;;;13.09;100.00
72110;BME280;59983;52.010;5.420;2023-09-19T05:44:48;100845.53;;;13.10;100.00
72110;BME280;59983;52.010;5.420;2023-09-19T05:47:15;100848.66;;;13.12;100.00
72110;BME280;59983;52.010;5.420;2023-09-19T05:49:42;100841.69;;;13.14;100.00
72110;BME280;59983;52.010;5.420;2023-09-19T05:52:08;100847.94;;;13.15;100.00
72110;BME280;59983;52.010;5.420;2023-09-19T05:54:35;100849.16;;;13.17;100.00
72110;BME280;59983;52.010;5.420;2023-09-19T05:57:01;100858.56;;;13.20;100.00
72110;BME280;59983;52.010;5.420;2023-09-19T05:59:28;100846.53;;;13.21;100.00
72110;BME280;59983;52.010;5.420;2023-09-19T06:01:55;100852.38;;;13.23;100.00
72110;BME280;59983;52.010;5.420;2023-09-19T06:04:21;100856.34;;;13.25;100.00
72110;BME280;59983;52.010;5.420;2023-09-19T06:06:48;100857.97;;;13.30;100.00
72110;BME280;59983;52.010;5.420;2023-09-19T06:09:15;100863.84;;;13.32;100.00
72110;BME280;59983;52.010;5.420;2023-09-19T06:11:42;100865.47;;;13.37;100.00
72110;BME280;59983;52.010;5.420;2023-09-19T06:14:08;100867.91;;;13.42;100.00
72110;BME280;59983;52.010;5.420;2023-09-19T06:16:36;100865.16;;;13.42;100.00
72110;BME280;59983;52.010;5.420;2023-09-19T06:19:07;100876.16;;;13.45;100.00
72110;BME280;59983;52.010;5.420;2023-09-19T06:21:36;100878.44;;;13.43;100.00
72110;BME280;59983;52.010;5.420;2023-09-19T06:24:03;100880.50;;;13.50;100.00
72110;BME280;59983;52.010;5.420;2023-09-19T06:26:30;100877.53;;;13.58;100.00
72110;BME280;59983;52.010;5.420;2023-09-19T06:28:57;100878.75;;;13.61;100.00
72110;BME280;59983;52.010;5.420;2023-09-19T06:31:24;100881.53;;;13.65;100.00
72110;BME280;59983;52.010;5.420;2023-09-19T06:33:53;100871.03;;;13.67;100.00
72110;BME280;59983;52.010;5.420;2023-09-19T06:36:19;100879.28;;;13.70;100.00
72110;BME280;59983;52.010;5.420;2023-09-19T06:38:46;100880.91;;;13.75;100.00
72110;BME280;59983;52.010;5.420;2023-09-19T06:41:13;100877.09;;;13.79;100.00
72110;BME280;59983;52.010;5.420;2023-09-19T06:43:43;100874.84;;;13.85;100.00
72110;BME280;59983;52.010;5.420;2023-09-19T06:46:10;100884.28;;;13.91;100.00
72110;BME280;59983;52.010;5.420;2023-09-19T06:48:39;100876.50;;;13.93;100.00
72110;BME280;59983;52.010;5.420;2023-09-19T06:51:06;100889.00;;;13.94;100.00
72110;BME280;59983;52.010;5.420;2023-09-19T06:53:34;100878.09;;;13.94;100.00
72110;BME280;59983;52.010;5.420;2023-09-19T06:56:02;100880.50;;;13.99;100.00
72110;BME280;59983;52.010;5.420;2023-09-19T06:58:29;100889.53;;;14.03;100.00
72110;BME280;59983;52.010;5.420;2023-09-19T07:00:55;100875.53;;;14.05;100.00
72110;BME280;59983;52.010;5.420;2023-09-19T07:03:23;100884.13;;;14.07;100.00
72110;BME280;59983;52.010;5.420;2023-09-19T07:05:54;100875.28;;;14.13;100.00
72110;BME280;59983;52.010;5.420;2023-09-19T07:08:22;100885.44;;;14.16;100.00
72110;BME280;59983;52.010;5.420;2023-09-19T07:10:49;100882.75;;;14.20;100.00
72110;BME280;59983;52.010;5.420;2023-09-19T07:13:16;100877.78;;;14.26;100.00
72110;BME280;59983;52.010;5.420;2023-09-19T07:15:44;100886.06;;;14.33;100.00
72110;BME280;59983;52.010;5.420;2023-09-19T07:18:14;100882.63;;;14.39;100.00
72110;BME280;59983;52.010;5.420;2023-09-19T07:20:44;100891.31;;;14.45;100.00
72110;BME280;59983;52.010;5.420;2023-09-19T07:23:20;100888.28;;;14.50;100.00
72110;BME280;59983;52.010;5.420;2023-09-19T07:25:49;100899.66;;;14.56;100.00
72110;BME280;59983;52.010;5.420;2023-09-19T07:28:16;100899.72;;;14.59;100.00
72110;BME280;59983;52.010;5.420;2023-09-19T07:30:43;100893.88;;;14.61;100.00
72110;BME280;59983;52.010;5.420;2023-09-19T07:33:10;100897.41;;;14.65;100.00
72110;BME280;59983;52.010;5.420;2023-09-19T07:35:38;100899.00;;;14.66;100.00
72110;BME280;59983;52.010;5.420;2023-09-19T07:38:08;100903.34;;;14.70;100.00
72110;BME280;59983;52.010;5.420;2023-09-19T07:40:36;100901.88;;;14.77;100.00
72110;BME280;59983;52.010;5.420;2023-09-19T07:43:03;100911.22;;;14.76;100.00
72110;BME280;59983;52.010;5.420;2023-09-19T07:45:31;100915.56;;;14.80;100.00
72110;BME280;59983;52.010;5.420;2023-09-19T07:47:59;100923.44;;;14.85;100.00
72110;BME280;59983;52.010;5.420;2023-09-19T07:50:27;100918.78;;;14.89;100.00
72110;BME280;59983;52.010;5.420;2023-09-19T07:52:55;100913.34;;;14.93;100.00
72110;BME280;59983;52.010;5.420;2023-09-19T07:55:22;100904.84;;;14.98;100.00
72110;BME280;59983;52.010;5.420;2023-09-19T07:57:52;100911.50;;;15.00;100.00
72110;BME280;59983;52.010;5.420;2023-09-19T08:00:18;100919.75;;;15.04;100.00
72110;BME280;59983;52.010;5.420;2023-09-19T08:02:46;100911.59;;;15.08;100.00
72110;BME280;59983;52.010;5.420;2023-09-19T08:05:22;100917.50;;;15.13;100.00
72110;BME280;59983;52.010;5.420;2023-09-19T08:07:49;100919.91;;;15.18;100.00
72110;BME280;59983;52.010;5.420;2023-09-19T08:10:16;100920.75;;;15.26;100.00
72110;BME280;59983;52.010;5.420;2023-09-19T08:12:47;100918.50;;;15.32;100.00
72110;BME280;59983;52.010;5.420;2023-09-19T08:15:19;100921.25;;;15.35;100.00
72110;BME280;59983;52.010;5.420;2023-09-19T08:17:46;100919.38;;;15.43;100.00
72110;BME280;59983;52.010;5.420;2023-09-19T08:20:13;100911.22;;;15.46;100.00
72110;BME280;59983;52.010;5.420;2023-09-19T08:22:47;100921.41;;;15.53;100.00
72110;BME280;59983;52.010;5.420;2023-09-19T08:25:15;100928.44;;;15.54;100.00
72110;BME280;59983;52.010;5.420;2023-09-19T08:27:45;100919.91;;;15.59;100.00
72110;BME280;59983;52.010;5.420;2023-09-19T08:30:17;100906.38;;;15.70;100.00
72110;BME280;59983;52.010;5.420;2023-09-19T08:32:44;100916.19;;;15.78;100.00
72110;BME280;59983;52.010;5.420;2023-09-19T08:35:12;100911.19;;;15.83;100.00
72110;BME280;59983;52.010;5.420;2023-09-19T08:37:39;100916.25;;;15.81;100.00
72110;BME280;59983;52.010;5.420;2023-09-19T08:40:06;100911.56;;;15.82;100.00
72110;BME280;59983;52.010;5.420;2023-09-19T08:42:52;100925.66;;;15.88;100.00
72110;BME280;59983;52.010;5.420;2023-09-19T08:45:21;100912.03;;;15.91;100.00
72110;BME280;59983;52.010;5.420;2023-09-19T08:50:49;100896.88;;;16.04;100.00
72110;BME280;59983;52.010;5.420;2023-09-19T08:53:41;100898.13;;;16.18;100.00
72110;BME280;59983;52.010;5.420;2023-09-19T08:56:10;100898.16;;;16.25;100.00
72110;BME280;59983;52.010;5.420;2023-09-19T08:59:04;100906.41;;;16.28;100.00
72110;BME280;59983;52.010;5.420;2023-09-19T09:01:35;100902.94;;;16.35;100.00
72110;BME280;59983;52.010;5.420;2023-09-19T09:04:02;100902.50;;;16.33;100.00
72110;BME280;59983;52.010;5.420;2023-09-19T09:06:31;100911.50;;;16.30;100.00
72110;BME280;59983;52.010;5.420;2023-09-19T09:08:59;100914.25;;;16.33;100.00
72110;BME280;59983;52.010;5.420;2023-09-19T09:11:26;100902.56;;;16.40;100.00
72110;BME280;59983;52.010;5.420;2023-09-19T09:13:54;100899.44;;;16.41;100.00
72110;BME280;59983;52.010;5.420;2023-09-19T09:16:21;100919.38;;;16.42;100.00
72110;BME280;59983;52.010;5.420;2023-09-19T09:18:52;100909.25;;;16.46;100.00
72110;BME280;59983;52.010;5.420;2023-09-19T09:21:21;100914.78;;;16.53;100.00
72110;BME280;59983;52.010;5.420;2023-09-19T09:23:50;100892.47;;;16.55;100.00
72110;BME280;59983;52.010;5.420;2023-09-19T09:26:41;100894.81;;;16.60;100.00
72110;BME280;59983;52.010;5.420;2023-09-19T09:29:11;100898.03;;;16.69;100.00
72110;BME280;59983;52.010;5.420;2023-09-19T09:31:39;100893.78;;;16.82;100.00
72110;BME280;59983;52.010;5.420;2023-09-19T09:34:08;100909.44;;;16.85;100.00
72110;BME280;59983;52.010;5.420;2023-09-19T09:36:38;100901.66;;;16.87;100.00
72110;BME280;59983;52.010;5.420;2023-09-19T09:39:05;100896.16;;;16.94;100.00
72110;BME280;59983;52.010;5.420;2023-09-19T09:41:44;100889.53;;;16.99;100.00
72110;BME280;59983;52.010;5.420;2023-09-19T09:44:17;100891.53;;;17.06;100.00
72110;BME280;59983;52.010;5.420;2023-09-19T09:46:45;100886.44;;;17.11;100.00
72110;BME280;59983;52.010;5.420;2023-09-19T09:49:26;100899.75;;;17.20;100.00
72110;BME280;59983;52.010;5.420;2023-09-19T09:52:03;100882.94;;;17.25;100.00
72110;BME280;59983;52.010;5.420;2023-09-19T09:55:01;100869.63;;;17.38;100.00
72110;BME280;59983;52.010;5.420;2023-09-19T09:57:31;100895.09;;;17.38;98.12
72110;BME280;59983;52.010;5.420;2023-09-19T09:59:59;100873.16;;;17.38;100.00
72110;BME280;59983;52.010;5.420;2023-09-19T10:02:42;100886.50;;;17.50;99.79
72110;BME280;59983;52.010;5.420;2023-09-19T10:05:19;100877.47;;;17.39;100.00
72110;BME280;59983;52.010;5.420;2023-09-19T10:07:51;100875.53;;;17.50;100.00
72110;BME280;59983;52.010;5.420;2023-09-19T10:10:32;100870.44;;;17.63;100.00
72110;BME280;59983;52.010;5.420;2023-09-19T10:13:14;100892.41;;;17.81;100.00
72110;BME280;59983;52.010;5.420;2023-09-19T10:15:49;100931.59;;;17.81;99.57
72110;BME280;59983;52.010;5.420;2023-09-19T10:18:23;100890.03;;;17.65;100.00
72110;BME280;59983;52.010;5.420;2023-09-19T10:20:51;100915.50;;;17.62;99.30
72110;BME280;59983;52.010;5.420;2023-09-19T10:23:19;100890.03;;;17.62;100.00
72110;BME280;59983;52.010;5.420;2023-09-19T10:25:50;100884.13;;;17.67;99.90
72110;BME280;59983;52.010;5.420;2023-09-19T10:28:20;100893.59;;;17.73;97.88
72110;BME280;59983;52.010;5.420;2023-09-19T10:30:52;100887.72;;;17.71;98.04
72110;BME280;59983;52.010;5.420;2023-09-19T10:33:24;100869.28;;;17.78;98.81
72110;BME280;59983;52.010;5.420;2023-09-19T10:35:54;100874.38;;;17.83;98.05
72110;BME280;59983;52.010;5.420;2023-09-19T10:38:27;100882.22;;;17.85;97.56
72110;BME280;59983;52.010;5.420;2023-09-19T10:40:56;100865.75;;;17.85;99.61
72110;BME280;59983;52.010;5.420;2023-09-19T10:43:32;100866.94;;;17.88;97.72
72110;BME280;59983;52.010;5.420;2023-09-19T10:46:07;100863.78;;;17.96;99.87
72110;BME280;59983;52.010;5.420;2023-09-19T10:48:38;100853.56;;;18.00;99.12
72110;BME280;59983;52.010;5.420;2023-09-19T10:51:12;100860.63;;;18.05;97.74
72110;BME280;59983;52.010;5.420;2023-09-19T10:53:47;100832.00;;;17.99;98.27
72110;BME280;59983;52.010;5.420;2023-09-19T10:56:37;100837.88;;;18.04;98.41
72110;BME280;59983;52.010;5.420;2023-09-19T10:59:06;100843.75;;;18.06;96.14
72110;BME280;59983;52.010;5.420;2023-09-19T11:01:55;100860.97;;;18.18;98.33
72110;BME280;59983;52.010;5.420;2023-09-19T11:04:32;100838.66;;;18.08;97.00
72110;BME280;59983;52.010;5.420;2023-09-19T11:07:03;100833.16;;;18.12;97.95
72110;BME280;59983;52.010;5.420;2023-09-19T11:09:49;100832.69;;;18.28;96.40
72110;BME280;59983;52.010;5.420;2023-09-19T11:26:51;100826.00;;;18.47;95.00
72110;BME280;59983;52.010;5.420;2023-09-19T11:29:25;100832.63;;;18.53;92.12
72110;BME280;59983;52.010;5.420;2023-09-19T11:31:52;100820.03;;;18.59;92.08
72110;BME280;59983;52.010;5.420;2023-09-19T11:40:05;100826.66;;;18.72;89.12
72110;BME280;59983;52.010;5.420;2023-09-19T11:42:45;100816.41;;;18.80;87.40
72110;BME280;59983;52.010;5.420;2023-09-19T11:48:18;100801.88;;;18.79;90.15
72110;BME280;59983;52.010;5.420;2023-09-19T11:50:45;100788.19;;;18.76;87.72
72110;BME280;59983;52.010;5.420;2023-09-19T11:53:14;100794.47;;;18.73;87.71
72110;BME280;59983;52.010;5.420;2023-09-19T11:55:42;100810.47;;;18.88;89.61
72110;BME280;59983;52.010;5.420;2023-09-19T11:58:15;100786.06;;;19.01;86.85
72110;BME280;59983;52.010;5.420;2023-09-19T12:00:44;100816.75;;;18.92;87.39
72110;BME280;59983;52.010;5.420;2023-09-19T12:03:12;100802.69;;;18.76;87.98
72110;BME280;59983;52.010;5.420;2023-09-19T12:05:41;100803.53;;;18.70;87.06
72110;BME280;59983;52.010;5.420;2023-09-19T12:08:07;100807.06;;;18.59;88.02
72110;BME280;59983;52.010;5.420;2023-09-19T12:10:55;100813.38;;;18.53;88.47
72110;BME280;59983;52.010;5.420;2023-09-19T12:13:22;100824.75;;;18.55;87.31
72110;BME280;59983;52.010;5.420;2023-09-19T12:15:49;100810.63;;;18.53;87.77
72110;BME280;59983;52.010;5.420;2023-09-19T12:18:28;100826.75;;;18.51;90.81
72110;BME280;59983;52.010;5.420;2023-09-19T12:20:56;100830.28;;;18.48;89.50
72110;BME280;59983;52.010;5.420;2023-09-19T12:23:24;100797.31;;;18.51;90.38
72110;BME280;59983;52.010;5.420;2023-09-19T12:25:54;100806.34;;;18.48;88.61
72110;BME280;59983;52.010;5.420;2023-09-19T12:28:26;100815.78;;;18.47;90.27
72110;BME280;59983;52.010;5.420;2023-09-19T12:30:53;100804.78;;;18.47;93.11
72110;BME280;59983;52.010;5.420;2023-09-19T12:33:24;100820.91;;;18.42;92.77
72110;BME280;59983;52.010;5.420;2023-09-19T12:35:54;100819.34;;;18.40;91.69
72110;BME280;59983;52.010;5.420;2023-09-19T12:38:27;100805.59;;;18.37;92.11
72110;BME280;59983;52.010;5.420;2023-09-19T12:40:59;100800.94;;;18.30;93.09
72110;BME280;59983;52.010;5.420;2023-09-19T12:43:28;100800.97;;;18.23;95.33
72110;BME280;59983;52.010;5.420;2023-09-19T12:45:59;100809.19;;;18.20;94.74
72110;BME280;59983;52.010;5.420;2023-09-19T12:48:26;100802.91;;;18.19;94.03
72110;BME280;59983;52.010;5.420;2023-09-19T12:53:39;100800.94;;;18.27;94.25
72110;BME280;59983;52.010;5.420;2023-09-19T12:56:15;100804.84;;;18.33;92.40
72110;BME280;59983;52.010;5.420;2023-09-19T12:58:52;100800.53;;;18.32;93.99
72110;BME280;59983;52.010;5.420;2023-09-19T13:01:23;100796.59;;;18.33;93.52
72110;BME280;59983;52.010;5.420;2023-09-19T13:04:18;100800.50;;;18.35;92.93
72110;BME280;59983;52.010;5.420;2023-09-19T13:06:50;100811.13;;;18.30;95.15
72110;BME280;59983;52.010;5.420;2023-09-19T13:09:19;100811.91;;;18.27;93.75
72110;BME280;59983;52.010;5.420;2023-09-19T13:11:54;100799.38;;;18.26;94.91
72110;BME280;59983;52.010;5.420;2023-09-19T13:14:23;100799.78;;;18.24;93.94
72110;BME280;59983;52.010;5.420;2023-09-19T13:19:40;100815.09;;;18.22;93.90
72110;BME280;59983;52.010;5.420;2023-09-19T13:22:42;100801.38;;;18.22;94.89
72110;BME280;59983;52.010;5.420;2023-09-19T13:25:12;100811.94;;;18.23;93.61
72110;BME280;59983;52.010;5.420;2023-09-19T13:27:55;100820.56;;;18.25;93.10
72110;BME280;59983;52.010;5.420;2023-09-19T13:30:24;100826.06;;;18.29;93.09
72110;BME280;59983;52.010;5.420;2023-09-19T13:32:52;100807.56;;;18.36;94.10
72110;BME280;59983;52.010;5.420;2023-09-19T13:35:20;100805.22;;;18.38;94.50
72110;BME280;59983;52.010;5.420;2023-09-19T13:37:47;100791.88;;;18.37;93.57
72110;BME280;59983;52.010;5.420;2023-09-19T13:40:18;100813.84;;;18.37;95.25
72110;BME280;59983;52.010;5.420;2023-09-19T13:42:44;100811.03;;;18.51;94.94
72110;BME280;59983;52.010;5.420;2023-09-19T13:45:11;100796.50;;;18.65;94.97